Spring's Hourly Summary for Saturday, July 7, 2018
Hour Temp
(f)
RH
(%)
Solar Rad.
(MJ/m2)
Rainfall
(in)
Wind
(mph)
7/7/2018 12:00 AM 80 77 0 0 1.52
7/7/2018 1:00 AM 78 76 0 0 2.05
7/7/2018 2:00 AM 77 77 0 0 0.2
7/7/2018 3:00 AM 76 82 0 0 0.13
7/7/2018 4:00 AM 76 83 0 0 0.22
7/7/2018 5:00 AM 75 85 0 0 0.03
7/7/2018 6:00 AM 75 88 0 0 0.47
7/7/2018 7:00 AM 75 89 0.03 0 0.82
7/7/2018 8:00 AM 77 82 0.42 0 0.96
7/7/2018 9:00 AM 80 70 1.07 0 2.66
7/7/2018 10:00 AM 83 64 1.78 0 2.01
7/7/2018 11:00 AM 86 56 2.3 0 2.18
7/7/2018 12:00 PM 88 51 2.74 0 3.24
7/7/2018 1:00 PM 89 51 3.48 0 3.79
7/7/2018 2:00 PM 89 49 3.24 0 4.14
7/7/2018 3:00 PM 87 48 2.44 0 4.93
7/7/2018 4:00 PM 86 58 2 0 6.99
7/7/2018 5:00 PM 86 62 2.1 0 6.43
7/7/2018 6:00 PM 82 69 0.61 0 4.16
7/7/2018 7:00 PM 81 69 0.32 0 3.75
7/7/2018 8:00 PM 78 82 0.13 0 1.84
7/7/2018 9:00 PM 77 86 0.03 0 1.22
7/7/2018 10:00 PM 77 87 0 0 1.07
7/7/2018 11:00 PM 76 87 0 0 0.65
Data Summary 80 72 22.69 0.00 2.31